sensor_id;sensor_type;location;lat;lon;timestamp;P1;durP1;ratioP1;P2;durP2;ratioP2
36189;SDS011;22232;50.914;13.858;2023-06-01T00:01:18;2.08;;;1.80;;
36189;SDS011;22232;50.914;13.858;2023-06-01T00:03:48;3.55;;;2.17;;
36189;SDS011;22232;50.914;13.858;2023-06-01T00:06:16;3.90;;;2.20;;
36189;SDS011;22232;50.914;13.858;2023-06-01T00:08:43;2.38;;;1.55;;
36189;SDS011;22232;50.914;13.858;2023-06-01T00:11:11;5.10;;;2.22;;
36189;SDS011;22232;50.914;13.858;2023-06-01T00:13:39;4.70;;;2.17;;
36189;SDS011;22232;50.914;13.858;2023-06-01T00:16:07;4.55;;;2.80;;
36189;SDS011;22232;50.914;13.858;2023-06-01T00:18:35;3.28;;;2.08;;
36189;SDS011;22232;50.914;13.858;2023-06-01T00:21:02;3.35;;;2.10;;
36189;SDS011;22232;50.914;13.858;2023-06-01T00:23:30;2.95;;;2.00;;
36189;SDS011;22232;50.914;13.858;2023-06-01T00:25:57;4.03;;;1.98;;
36189;SDS011;22232;50.914;13.858;2023-06-01T00:28:25;4.75;;;2.30;;
36189;SDS011;22232;50.914;13.858;2023-06-01T00:30:53;2.97;;;2.00;;
36189;SDS011;22232;50.914;13.858;2023-06-01T00:33:21;3.88;;;2.00;;
36189;SDS011;22232;50.914;13.858;2023-06-01T00:35:49;3.35;;;2.08;;
36189;SDS011;22232;50.914;13.858;2023-06-01T00:38:18;4.88;;;2.05;;
36189;SDS011;22232;50.914;13.858;2023-06-01T00:40:46;3.22;;;1.92;;
36189;SDS011;22232;50.914;13.858;2023-06-01T00:43:18;4.35;;;2.00;;
36189;SDS011;22232;50.914;13.858;2023-06-01T00:45:46;5.22;;;1.92;;
36189;SDS011;22232;50.914;13.858;2023-06-01T00:48:14;4.30;;;2.00;;
36189;SDS011;22232;50.914;13.858;2023-06-01T00:50:46;4.85;;;2.05;;
36189;SDS011;22232;50.914;13.858;2023-06-01T00:53:18;3.53;;;2.05;;
36189;SDS011;22232;50.914;13.858;2023-06-01T00:55:47;3.80;;;2.03;;
36189;SDS011;22232;50.914;13.858;2023-06-01T00:58:15;3.90;;;2.38;;
36189;SDS011;22232;50.914;13.858;2023-06-01T01:00:43;3.50;;;2.08;;
36189;SDS011;22232;50.914;13.858;2023-06-01T01:03:10;3.67;;;2.35;;
36189;SDS011;22232;50.914;13.858;2023-06-01T01:05:41;3.67;;;2.13;;
36189;SDS011;22232;50.914;13.858;2023-06-01T01:08:25;5.57;;;2.25;;
36189;SDS011;22232;50.914;13.858;2023-06-01T01:11:21;3.38;;;2.08;;
36189;SDS011;22232;50.914;13.858;2023-06-01T01:13:58;3.05;;;1.95;;
36189;SDS011;22232;50.914;13.858;2023-06-01T01:32:34;3.25;;;1.90;;
36189;SDS011;22232;50.914;13.858;2023-06-01T01:35:03;2.75;;;2.13;;
36189;SDS011;22232;50.914;13.858;2023-06-01T01:37:32;3.20;;;1.83;;
36189;SDS011;22232;50.914;13.858;2023-06-01T01:40:01;2.58;;;1.85;;
36189;SDS011;22232;50.914;13.858;2023-06-01T01:42:29;3.20;;;2.00;;
36189;SDS011;22232;50.914;13.858;2023-06-01T01:44:57;3.47;;;2.10;;
36189;SDS011;22232;50.914;13.858;2023-06-01T01:47:27;4.35;;;2.28;;
36189;SDS011;22232;50.914;13.858;2023-06-01T01:50:03;4.70;;;2.08;;
36189;SDS011;22232;50.914;13.858;2023-06-01T01:52:43;3.55;;;1.70;;
36189;SDS011;22232;50.914;13.858;2023-06-01T01:55:14;4.18;;;2.10;;
36189;SDS011;22232;50.914;13.858;2023-06-01T01:57:42;4.15;;;2.20;;
36189;SDS011;22232;50.914;13.858;2023-06-01T02:00:11;4.03;;;1.63;;
36189;SDS011;22232;50.914;13.858;2023-06-01T02:02:39;2.05;;;1.58;;
36189;SDS011;22232;50.914;13.858;2023-06-01T02:05:07;3.38;;;2.00;;
36189;SDS011;22232;50.914;13.858;2023-06-01T02:07:35;4.15;;;1.88;;
36189;SDS011;22232;50.914;13.858;2023-06-01T02:10:04;2.20;;;1.90;;
36189;SDS011;22232;50.914;13.858;2023-06-01T02:12:33;3.15;;;1.80;;
36189;SDS011;22232;50.914;13.858;2023-06-01T02:15:01;2.70;;;1.90;;
36189;SDS011;22232;50.914;13.858;2023-06-01T02:17:28;2.78;;;1.75;;
36189;SDS011;22232;50.914;13.858;2023-06-01T02:19:56;2.22;;;1.67;;
36189;SDS011;22232;50.914;13.858;2023-06-01T02:22:24;2.88;;;2.15;;
36189;SDS011;22232;50.914;13.858;2023-06-01T02:24:51;2.78;;;1.80;;
36189;SDS011;22232;50.914;13.858;2023-06-01T02:27:19;2.78;;;1.98;;
36189;SDS011;22232;50.914;13.858;2023-06-01T02:29:47;4.40;;;1.80;;
36189;SDS011;22232;50.914;13.858;2023-06-01T02:32:15;2.40;;;1.80;;
36189;SDS011;22232;50.914;13.858;2023-06-01T02:34:43;3.45;;;1.80;;
36189;SDS011;22232;50.914;13.858;2023-06-01T02:37:11;3.90;;;2.00;;
36189;SDS011;22232;50.914;13.858;2023-06-01T02:39:39;2.80;;;2.05;;
36189;SDS011;22232;50.914;13.858;2023-06-01T02:42:06;2.55;;;1.85;;
36189;SDS011;22232;50.914;13.858;2023-06-01T02:44:35;2.83;;;1.90;;
36189;SDS011;22232;50.914;13.858;2023-06-01T02:47:02;2.88;;;1.80;;
36189;SDS011;22232;50.914;13.858;2023-06-01T02:49:30;4.32;;;2.30;;
36189;SDS011;22232;50.914;13.858;2023-06-01T02:51:58;2.92;;;2.10;;
36189;SDS011;22232;50.914;13.858;2023-06-01T02:54:26;7.40;;;2.13;;
36189;SDS011;22232;50.914;13.858;2023-06-01T02:56:54;3.08;;;2.17;;
36189;SDS011;22232;50.914;13.858;2023-06-01T02:59:35;4.32;;;1.90;;
36189;SDS011;22232;50.914;13.858;2023-06-01T03:02:03;4.70;;;2.08;;
36189;SDS011;22232;50.914;13.858;2023-06-01T03:04:31;2.45;;;1.92;;
36189;SDS011;22232;50.914;13.858;2023-06-01T03:07:00;5.60;;;2.17;;
36189;SDS011;22232;50.914;13.858;2023-06-01T03:09:42;3.33;;;1.90;;
36189;SDS011;22232;50.914;13.858;2023-06-01T03:12:24;4.72;;;2.10;;
36189;SDS011;22232;50.914;13.858;2023-06-01T03:14:52;3.60;;;1.98;;
36189;SDS011;22232;50.914;13.858;2023-06-01T03:17:19;5.00;;;2.25;;
36189;SDS011;22232;50.914;13.858;2023-06-01T03:19:47;4.03;;;2.13;;
36189;SDS011;22232;50.914;13.858;2023-06-01T03:22:20;3.33;;;2.10;;
36189;SDS011;22232;50.914;13.858;2023-06-01T03:24:49;3.13;;;1.90;;
36189;SDS011;22232;50.914;13.858;2023-06-01T03:27:21;4.40;;;1.95;;
36189;SDS011;22232;50.914;13.858;2023-06-01T03:29:49;3.13;;;2.15;;
36189;SDS011;22232;50.914;13.858;2023-06-01T03:32:17;3.97;;;2.17;;
36189;SDS011;22232;50.914;13.858;2023-06-01T03:34:45;6.18;;;2.90;;
36189;SDS011;22232;50.914;13.858;2023-06-01T03:37:13;4.13;;;2.25;;
36189;SDS011;22232;50.914;13.858;2023-06-01T03:39:41;4.68;;;2.10;;
36189;SDS011;22232;50.914;13.858;2023-06-01T03:42:11;4.88;;;2.13;;
36189;SDS011;22232;50.914;13.858;2023-06-01T03:44:39;5.78;;;2.17;;
36189;SDS011;22232;50.914;13.858;2023-06-01T03:47:08;4.50;;;1.90;;
36189;SDS011;22232;50.914;13.858;2023-06-01T03:49:36;3.15;;;2.10;;
36189;SDS011;22232;50.914;13.858;2023-06-01T03:52:08;2.90;;;1.90;;
36189;SDS011;22232;50.914;13.858;2023-06-01T03:54:36;6.63;;;2.72;;
36189;SDS011;22232;50.914;13.858;2023-06-01T03:57:11;6.22;;;2.75;;
36189;SDS011;22232;50.914;13.858;2023-06-01T03:59:39;4.47;;;2.63;;
36189;SDS011;22232;50.914;13.858;2023-06-01T04:02:06;5.05;;;2.60;;
36189;SDS011;22232;50.914;13.858;2023-06-01T04:04:36;6.15;;;2.30;;
36189;SDS011;22232;50.914;13.858;2023-06-01T04:07:04;4.22;;;2.78;;
36189;SDS011;22232;50.914;13.858;2023-06-01T04:09:32;4.20;;;2.70;;
36189;SDS011;22232;50.914;13.858;2023-06-01T04:12:00;5.18;;;2.40;;
36189;SDS011;22232;50.914;13.858;2023-06-01T04:14:30;6.10;;;2.40;;
36189;SDS011;22232;50.914;13.858;2023-06-01T04:16:58;4.03;;;2.30;;
36189;SDS011;22232;50.914;13.858;2023-06-01T04:19:26;5.93;;;2.70;;
36189;SDS011;22232;50.914;13.858;2023-06-01T04:21:59;4.53;;;2.35;;
36189;SDS011;22232;50.914;13.858;2023-06-01T04:24:27;7.32;;;2.65;;
36189;SDS011;22232;50.914;13.858;2023-06-01T04:26:56;6.50;;;2.65;;
36189;SDS011;22232;50.914;13.858;2023-06-01T04:29:26;5.38;;;2.15;;
36189;SDS011;22232;50.914;13.858;2023-06-01T04:31:54;4.63;;;2.35;;
36189;SDS011;22232;50.914;13.858;2023-06-01T04:34:23;4.80;;;2.10;;
36189;SDS011;22232;50.914;13.858;2023-06-01T04:36:51;4.03;;;2.15;;
36189;SDS011;22232;50.914;13.858;2023-06-01T04:39:19;3.75;;;2.25;;
36189;SDS011;22232;50.914;13.858;2023-06-01T04:41:46;3.78;;;2.42;;
36189;SDS011;22232;50.914;13.858;2023-06-01T04:44:17;4.35;;;2.60;;
36189;SDS011;22232;50.914;13.858;2023-06-01T04:46:46;3.28;;;2.05;;
36189;SDS011;22232;50.914;13.858;2023-06-01T04:49:17;4.13;;;2.20;;
36189;SDS011;22232;50.914;13.858;2023-06-01T04:51:45;3.88;;;2.15;;
36189;SDS011;22232;50.914;13.858;2023-06-01T04:54:13;2.67;;;1.92;;
36189;SDS011;22232;50.914;13.858;2023-06-01T04:56:42;6.60;;;2.42;;
36189;SDS011;22232;50.914;13.858;2023-06-01T04:59:10;3.60;;;2.33;;
36189;SDS011;22232;50.914;13.858;2023-06-01T05:01:38;6.72;;;2.95;;
36189;SDS011;22232;50.914;13.858;2023-06-01T05:04:07;4.63;;;2.40;;
36189;SDS011;22232;50.914;13.858;2023-06-01T05:06:34;5.13;;;2.50;;
36189;SDS011;22232;50.914;13.858;2023-06-01T05:09:03;4.43;;;2.40;;
36189;SDS011;22232;50.914;13.858;2023-06-01T05:11:32;5.15;;;2.30;;
36189;SDS011;22232;50.914;13.858;2023-06-01T05:14:01;4.70;;;2.22;;
36189;SDS011;22232;50.914;13.858;2023-06-01T05:16:32;3.33;;;2.47;;
36189;SDS011;22232;50.914;13.858;2023-06-01T05:19:02;4.18;;;2.30;;
36189;SDS011;22232;50.914;13.858;2023-06-01T05:21:31;4.90;;;2.58;;
36189;SDS011;22232;50.914;13.858;2023-06-01T05:23:59;4.38;;;2.47;;
36189;SDS011;22232;50.914;13.858;2023-06-01T05:26:27;3.67;;;2.75;;
36189;SDS011;22232;50.914;13.858;2023-06-01T05:28:55;4.10;;;2.08;;
36189;SDS011;22232;50.914;13.858;2023-06-01T05:31:22;4.28;;;2.30;;
36189;SDS011;22232;50.914;13.858;2023-06-01T05:33:53;4.03;;;2.25;;
36189;SDS011;22232;50.914;13.858;2023-06-01T05:36:24;5.57;;;2.50;;
36189;SDS011;22232;50.914;13.858;2023-06-01T05:38:52;5.40;;;2.58;;
36189;SDS011;22232;50.914;13.858;2023-06-01T05:41:19;4.43;;;2.60;;
36189;SDS011;22232;50.914;13.858;2023-06-01T05:43:47;4.18;;;2.40;;
36189;SDS011;22232;50.914;13.858;2023-06-01T05:46:15;4.78;;;2.65;;
36189;SDS011;22232;50.914;13.858;2023-06-01T05:48:42;6.25;;;2.65;;
36189;SDS011;22232;50.914;13.858;2023-06-01T05:51:12;5.03;;;2.20;;
36189;SDS011;22232;50.914;13.858;2023-06-01T05:53:41;4.90;;;2.47;;
36189;SDS011;22232;50.914;13.858;2023-06-01T05:56:09;9.18;;;2.60;;
36189;SDS011;22232;50.914;13.858;2023-06-01T05:58:37;6.47;;;2.42;;
36189;SDS011;22232;50.914;13.858;2023-06-01T06:01:04;8.45;;;2.60;;
36189;SDS011;22232;50.914;13.858;2023-06-01T06:03:32;4.57;;;2.30;;
36189;SDS011;22232;50.914;13.858;2023-06-01T06:06:00;5.30;;;2.60;;
36189;SDS011;22232;50.914;13.858;2023-06-01T06:08:27;8.80;;;2.92;;
36189;SDS011;22232;50.914;13.858;2023-06-01T06:10:56;6.03;;;2.67;;
36189;SDS011;22232;50.914;13.858;2023-06-01T06:13:24;4.95;;;2.85;;
36189;SDS011;22232;50.914;13.858;2023-06-01T06:15:51;6.65;;;2.80;;
36189;SDS011;22232;50.914;13.858;2023-06-01T06:18:19;6.43;;;2.67;;
36189;SDS011;22232;50.914;13.858;2023-06-01T06:20:46;7.07;;;3.00;;
36189;SDS011;22232;50.914;13.858;2023-06-01T06:23:14;8.40;;;2.50;;
36189;SDS011;22232;50.914;13.858;2023-06-01T06:25:42;7.13;;;2.60;;
36189;SDS011;22232;50.914;13.858;2023-06-01T06:28:10;5.57;;;2.40;;
36189;SDS011;22232;50.914;13.858;2023-06-01T06:30:38;7.35;;;2.70;;
36189;SDS011;22232;50.914;13.858;2023-06-01T06:33:05;6.57;;;2.58;;
36189;SDS011;22232;50.914;13.858;2023-06-01T06:35:37;5.18;;;2.88;;
36189;SDS011;22232;50.914;13.858;2023-06-01T06:38:06;3.78;;;2.35;;
36189;SDS011;22232;50.914;13.858;2023-06-01T06:40:33;3.80;;;2.30;;
36189;SDS011;22232;50.914;13.858;2023-06-01T06:43:01;5.38;;;2.55;;
36189;SDS011;22232;50.914;13.858;2023-06-01T06:45:28;6.13;;;2.42;;
36189;SDS011;22232;50.914;13.858;2023-06-01T06:47:56;4.18;;;2.50;;
36189;SDS011;22232;50.914;13.858;2023-06-01T06:50:24;6.43;;;2.80;;
36189;SDS011;22232;50.914;13.858;2023-06-01T06:52:51;5.85;;;2.42;;
36189;SDS011;22232;50.914;13.858;2023-06-01T06:55:19;8.43;;;2.72;;
36189;SDS011;22232;50.914;13.858;2023-06-01T06:57:47;5.15;;;2.47;;
36189;SDS011;22232;50.914;13.858;2023-06-01T07:00:15;5.03;;;2.55;;
36189;SDS011;22232;50.914;13.858;2023-06-01T07:02:43;6.15;;;2.38;;
36189;SDS011;22232;50.914;13.858;2023-06-01T07:05:12;6.00;;;2.63;;
36189;SDS011;22232;50.914;13.858;2023-06-01T07:07:40;3.38;;;2.10;;
36189;SDS011;22232;50.914;13.858;2023-06-01T07:10:08;9.32;;;2.70;;
36189;SDS011;22232;50.914;13.858;2023-06-01T07:12:35;6.53;;;2.78;;
36189;SDS011;22232;50.914;13.858;2023-06-01T07:15:03;4.70;;;2.60;;
36189;SDS011;22232;50.914;13.858;2023-06-01T07:17:32;7.65;;;2.50;;
36189;SDS011;22232;50.914;13.858;2023-06-01T07:20:01;4.82;;;2.47;;
36189;SDS011;22232;50.914;13.858;2023-06-01T07:22:33;3.20;;;2.40;;
36189;SDS011;22232;50.914;13.858;2023-06-01T07:25:01;6.90;;;2.60;;
36189;SDS011;22232;50.914;13.858;2023-06-01T07:27:29;6.30;;;2.45;;
36189;SDS011;22232;50.914;13.858;2023-06-01T07:29:57;6.07;;;2.42;;
36189;SDS011;22232;50.914;13.858;2023-06-01T07:32:25;3.75;;;2.45;;
36189;SDS011;22232;50.914;13.858;2023-06-01T07:34:53;5.68;;;2.60;;
36189;SDS011;22232;50.914;13.858;2023-06-01T07:37:20;5.15;;;2.60;;
36189;SDS011;22232;50.914;13.858;2023-06-01T07:39:49;5.88;;;3.35;;
36189;SDS011;22232;50.914;13.858;2023-06-01T07:42:16;7.95;;;2.53;;
36189;SDS011;22232;50.914;13.858;2023-06-01T07:44:45;8.32;;;2.80;;
36189;SDS011;22232;50.914;13.858;2023-06-01T07:47:13;5.13;;;2.72;;
36189;SDS011;22232;50.914;13.858;2023-06-01T07:49:40;4.10;;;2.38;;
36189;SDS011;22232;50.914;13.858;2023-06-01T07:52:08;7.38;;;2.75;;
36189;SDS011;22232;50.914;13.858;2023-06-01T07:54:36;5.93;;;2.50;;
36189;SDS011;22232;50.914;13.858;2023-06-01T07:57:04;5.03;;;2.40;;
36189;SDS011;22232;50.914;13.858;2023-06-01T07:59:32;5.72;;;2.38;;
36189;SDS011;22232;50.914;13.858;2023-06-01T08:02:00;4.53;;;2.90;;
36189;SDS011;22232;50.914;13.858;2023-06-01T08:04:28;5.95;;;2.30;;
36189;SDS011;22232;50.914;13.858;2023-06-01T08:07:01;8.27;;;2.87;;
36189;SDS011;22232;50.914;13.858;2023-06-01T08:09:34;7.60;;;2.85;;
36189;SDS011;22232;50.914;13.858;2023-06-01T08:12:05;4.43;;;2.22;;
36189;SDS011;22232;50.914;13.858;2023-06-01T08:14:34;4.88;;;2.55;;
36189;SDS011;22232;50.914;13.858;2023-06-01T08:17:01;7.82;;;2.90;;
36189;SDS011;22232;50.914;13.858;2023-06-01T08:19:30;7.20;;;2.75;;
36189;SDS011;22232;50.914;13.858;2023-06-01T08:21:58;4.53;;;2.40;;
36189;SDS011;22232;50.914;13.858;2023-06-01T08:24:26;4.82;;;2.88;;
36189;SDS011;22232;50.914;13.858;2023-06-01T08:26:54;5.88;;;2.78;;
36189;SDS011;22232;50.914;13.858;2023-06-01T08:29:23;5.50;;;3.00;;
36189;SDS011;22232;50.914;13.858;2023-06-01T08:32:08;13.45;;;3.05;;
36189;SDS011;22232;50.914;13.858;2023-06-01T08:34:36;5.13;;;2.67;;
36189;SDS011;22232;50.914;13.858;2023-06-01T08:37:04;7.53;;;2.40;;
36189;SDS011;22232;50.914;13.858;2023-06-01T08:39:32;7.65;;;2.22;;
36189;SDS011;22232;50.914;13.858;2023-06-01T08:44:39;5.93;;;2.58;;
36189;SDS011;22232;50.914;13.858;2023-06-01T08:47:08;3.80;;;2.30;;
36189;SDS011;22232;50.914;13.858;2023-06-01T08:49:36;6.35;;;2.63;;
36189;SDS011;22232;50.914;13.858;2023-06-01T08:52:04;6.75;;;2.42;;
36189;SDS011;22232;50.914;13.858;2023-06-01T08:54:35;5.47;;;2.60;;
36189;SDS011;22232;50.914;13.858;2023-06-01T08:57:07;6.38;;;2.90;;
36189;SDS011;22232;50.914;13.858;2023-06-01T08:59:35;7.72;;;2.80;;
36189;SDS011;22232;50.914;13.858;2023-06-01T09:02:04;5.18;;;3.13;;
36189;SDS011;22232;50.914;13.858;2023-06-01T09:04:32;8.32;;;2.83;;
36189;SDS011;22232;50.914;13.858;2023-06-01T09:07:02;7.55;;;3.20;;
36189;SDS011;22232;50.914;13.858;2023-06-01T09:09:32;6.97;;;2.55;;
36189;SDS011;22232;50.914;13.858;2023-06-01T09:15:09;5.55;;;2.78;;
36189;SDS011;22232;50.914;13.858;2023-06-01T09:17:38;5.75;;;2.47;;
36189;SDS011;22232;50.914;13.858;2023-06-01T09:20:11;3.58;;;3.08;;
36189;SDS011;22232;50.914;13.858;2023-06-01T09:22:43;4.10;;;2.40;;
36189;SDS011;22232;50.914;13.858;2023-06-01T09:25:13;4.37;;;2.60;;
36189;SDS011;22232;50.914;13.858;2023-06-01T09:27:45;5.97;;;2.58;;
36189;SDS011;22232;50.914;13.858;2023-06-01T09:30:14;3.15;;;2.05;;
36189;SDS011;22232;50.914;13.858;2023-06-01T09:32:43;4.88;;;2.15;;
36189;SDS011;22232;50.914;13.858;2023-06-01T09:35:14;3.78;;;2.42;;
36189;SDS011;22232;50.914;13.858;2023-06-01T09:38:00;5.97;;;2.22;;
36189;SDS011;22232;50.914;13.858;2023-06-01T09:40:30;5.65;;;2.45;;
36189;SDS011;22232;50.914;13.858;2023-06-01T09:42:58;4.45;;;2.50;;
36189;SDS011;22232;50.914;13.858;2023-06-01T09:45:26;6.50;;;2.17;;
36189;SDS011;22232;50.914;13.858;2023-06-01T09:48:01;5.38;;;2.33;;
36189;SDS011;22232;50.914;13.858;2023-06-01T09:50:46;4.00;;;2.50;;
36189;SDS011;22232;50.914;13.858;2023-06-01T09:53:13;6.20;;;2.63;;
36189;SDS011;22232;50.914;13.858;2023-06-01T09:56:01;5.90;;;2.30;;
36189;SDS011;22232;50.914;13.858;2023-06-01T09:58:29;5.03;;;2.65;;
36189;SDS011;22232;50.914;13.858;2023-06-01T10:00:58;7.35;;;2.55;;
36189;SDS011;22232;50.914;13.858;2023-06-01T10:03:28;4.72;;;2.35;;
36189;SDS011;22232;50.914;13.858;2023-06-01T10:05:56;3.33;;;2.40;;
36189;SDS011;22232;50.914;13.858;2023-06-01T10:08:24;3.67;;;1.95;;
36189;SDS011;22232;50.914;13.858;2023-06-01T10:10:53;3.65;;;1.90;;
36189;SDS011;22232;50.914;13.858;2023-06-01T10:13:20;5.40;;;2.30;;
36189;SDS011;22232;50.914;13.858;2023-06-01T10:15:54;4.70;;;1.95;;
36189;SDS011;22232;50.914;13.858;2023-06-01T10:18:22;3.70;;;1.95;;
36189;SDS011;22232;50.914;13.858;2023-06-01T10:20:50;2.40;;;1.90;;
36189;SDS011;22232;50.914;13.858;2023-06-01T10:23:18;4.47;;;2.25;;
36189;SDS011;22232;50.914;13.858;2023-06-01T10:25:57;5.05;;;2.75;;
36189;SDS011;22232;50.914;13.858;2023-06-01T10:28:32;3.78;;;1.88;;
36189;SDS011;22232;50.914;13.858;2023-06-01T10:34:06;3.75;;;1.73;;
36189;SDS011;22232;50.914;13.858;2023-06-01T10:39:23;2.57;;;1.83;;
36189;SDS011;22232;50.914;13.858;2023-06-01T10:41:53;3.35;;;2.13;;
36189;SDS011;22232;50.914;13.858;2023-06-01T10:52:29;3.78;;;1.80;;
36189;SDS011;22232;50.914;13.858;2023-06-01T10:57:41;5.18;;;2.25;;
36189;SDS011;22232;50.914;13.858;2023-06-01T11:00:16;4.05;;;2.25;;
36189;SDS011;22232;50.914;13.858;2023-06-01T11:05:42;4.13;;;2.00;;
36189;SDS011;22232;50.914;13.858;2023-06-01T11:13:40;3.25;;;1.90;;
36189;SDS011;22232;50.914;13.858;2023-06-01T11:18:49;3.95;;;1.90;;
36189;SDS011;22232;50.914;13.858;2023-06-01T11:24:04;3.70;;;1.98;;
36189;SDS011;22232;50.914;13.858;2023-06-01T11:26:40;4.05;;;2.10;;
36189;SDS011;22232;50.914;13.858;2023-06-01T11:34:17;5.70;;;2.30;;
36189;SDS011;22232;50.914;13.858;2023-06-01T11:36:47;3.33;;;2.20;;
36189;SDS011;22232;50.914;13.858;2023-06-01T11:39:20;4.40;;;2.15;;
36189;SDS011;22232;50.914;13.858;2023-06-01T11:42:13;6.45;;;2.22;;
36189;SDS011;22232;50.914;13.858;2023-06-01T11:47:27;4.25;;;2.38;;
36189;SDS011;22232;50.914;13.858;2023-06-01T11:52:24;7.40;;;2.40;;
36189;SDS011;22232;50.914;13.858;2023-06-01T11:54:52;3.85;;;2.33;;
36189;SDS011;22232;50.914;13.858;2023-06-01T11:57:20;3.20;;;2.30;;
36189;SDS011;22232;50.914;13.858;2023-06-01T11:59:48;7.57;;;2.60;;
36189;SDS011;22232;50.914;13.858;2023-06-01T12:02:26;7.68;;;2.63;;
36189;SDS011;22232;50.914;13.858;2023-06-01T12:04:58;8.55;;;2.70;;
36189;SDS011;22232;50.914;13.858;2023-06-01T12:07:26;5.63;;;3.08;;
36189;SDS011;22232;50.914;13.858;2023-06-01T12:09:55;5.45;;;2.80;;
36189;SDS011;22232;50.914;13.858;2023-06-01T12:12:24;6.20;;;3.00;;
36189;SDS011;22232;50.914;13.858;2023-06-01T12:14:52;8.77;;;2.92;;
36189;SDS011;22232;50.914;13.858;2023-06-01T12:17:21;5.90;;;2.63;;
36189;SDS011;22232;50.914;13.858;2023-06-01T12:19:49;6.90;;;2.75;;
36189;SDS011;22232;50.914;13.858;2023-06-01T12:22:17;7.97;;;3.00;;
36189;SDS011;22232;50.914;13.858;2023-06-01T12:24:45;7.95;;;2.85;;
36189;SDS011;22232;50.914;13.858;2023-06-01T12:27:16;5.78;;;2.60;;
36189;SDS011;22232;50.914;13.858;2023-06-01T12:32:17;6.93;;;2.42;;
36189;SDS011;22232;50.914;13.858;2023-06-01T12:35:02;6.22;;;2.58;;
36189;SDS011;22232;50.914;13.858;2023-06-01T12:37:33;4.10;;;2.53;;
36189;SDS011;22232;50.914;13.858;2023-06-01T12:40:02;5.85;;;2.97;;
36189;SDS011;22232;50.914;13.858;2023-06-01T12:42:37;5.20;;;2.60;;
36189;SDS011;22232;50.914;13.858;2023-06-01T12:45:06;5.93;;;2.47;;
36189;SDS011;22232;50.914;13.858;2023-06-01T12:47:35;7.18;;;3.20;;
36189;SDS011;22232;50.914;13.858;2023-06-01T12:50:10;3.50;;;2.33;;
36189;SDS011;22232;50.914;13.858;2023-06-01T12:52:40;5.47;;;2.30;;
36189;SDS011;22232;50.914;13.858;2023-06-01T12:55:09;4.07;;;2.70;;
36189;SDS011;22232;50.914;13.858;2023-06-01T12:57:37;6.25;;;2.28;;
36189;SDS011;22232;50.914;13.858;2023-06-01T13:00:08;10.88;;;2.58;;
36189;SDS011;22232;50.914;13.858;2023-06-01T13:02:36;3.58;;;2.25;;
36189;SDS011;22232;50.914;13.858;2023-06-01T13:05:05;4.45;;;2.20;;
36189;SDS011;22232;50.914;13.858;2023-06-01T13:07:34;3.83;;;2.30;;
36189;SDS011;22232;50.914;13.858;2023-06-01T13:10:02;5.85;;;2.33;;
36189;SDS011;22232;50.914;13.858;2023-06-01T13:12:31;3.03;;;2.45;;
36189;SDS011;22232;50.914;13.858;2023-06-01T13:14:58;5.22;;;2.40;;
36189;SDS011;22232;50.914;13.858;2023-06-01T13:17:26;5.20;;;2.78;;
36189;SDS011;22232;50.914;13.858;2023-06-01T13:19:54;4.43;;;2.60;;
36189;SDS011;22232;50.914;13.858;2023-06-01T13:22:22;5.18;;;3.45;;
36189;SDS011;22232;50.914;13.858;2023-06-01T13:24:49;3.65;;;2.40;;
36189;SDS011;22232;50.914;13.858;2023-06-01T13:27:31;3.60;;;2.40;;
36189;SDS011;22232;50.914;13.858;2023-06-01T13:30:01;5.32;;;2.55;;
36189;SDS011;22232;50.914;13.858;2023-06-01T13:32:31;13.05;;;4.25;;
36189;SDS011;22232;50.914;13.858;2023-06-01T13:34:59;4.45;;;3.08;;
36189;SDS011;22232;50.914;13.858;2023-06-01T13:37:27;7.03;;;3.67;;
36189;SDS011;22232;50.914;13.858;2023-06-01T13:39:55;3.80;;;3.03;;
36189;SDS011;22232;50.914;13.858;2023-06-01T13:42:22;7.78;;;3.35;;
36189;SDS011;22232;50.914;13.858;2023-06-01T13:44:50;6.82;;;3.90;;
36189;SDS011;22232;50.914;13.858;2023-06-01T13:47:18;5.38;;;3.80;;
36189;SDS011;22232;50.914;13.858;2023-06-01T13:49:46;4.75;;;3.47;;
36189;SDS011;22232;50.914;13.858;2023-06-01T13:52:13;6.07;;;3.67;;
36189;SDS011;22232;50.914;13.858;2023-06-01T13:54:41;5.45;;;3.58;;
36189;SDS011;22232;50.914;13.858;2023-06-01T13:57:09;9.65;;;4.25;;
36189;SDS011;22232;50.914;13.858;2023-06-01T13:59:37;8.85;;;4.32;;
36189;SDS011;22232;50.914;13.858;2023-06-01T14:02:05;8.48;;;4.18;;
36189;SDS011;22232;50.914;13.858;2023-06-01T14:04:34;5.70;;;3.83;;
36189;SDS011;22232;50.914;13.858;2023-06-01T14:07:02;6.95;;;3.65;;
36189;SDS011;22232;50.914;13.858;2023-06-01T14:09:29;8.18;;;4.38;;
36189;SDS011;22232;50.914;13.858;2023-06-01T14:11:57;6.38;;;4.15;;
36189;SDS011;22232;50.914;13.858;2023-06-01T14:14:24;8.05;;;4.45;;
36189;SDS011;22232;50.914;13.858;2023-06-01T14:16:52;12.45;;;4.78;;
36189;SDS011;22232;50.914;13.858;2023-06-01T14:19:20;16.20;;;5.10;;
36189;SDS011;22232;50.914;13.858;2023-06-01T14:21:47;9.00;;;4.25;;
36189;SDS011;22232;50.914;13.858;2023-06-01T14:24:15;6.82;;;4.68;;
36189;SDS011;22232;50.914;13.858;2023-06-01T14:26:42;5.63;;;4.30;;
36189;SDS011;22232;50.914;13.858;2023-06-01T14:29:10;9.60;;;4.63;;
36189;SDS011;22232;50.914;13.858;2023-06-01T14:31:38;8.07;;;4.82;;
36189;SDS011;22232;50.914;13.858;2023-06-01T14:34:05;8.45;;;5.38;;
36189;SDS011;22232;50.914;13.858;2023-06-01T14:36:33;14.20;;;5.95;;
36189;SDS011;22232;50.914;13.858;2023-06-01T14:39:13;9.38;;;6.65;;
36189;SDS011;22232;50.914;13.858;2023-06-01T14:41:41;7.88;;;5.75;;
36189;SDS011;22232;50.914;13.858;2023-06-01T14:44:11;11.45;;;6.25;;
36189;SDS011;22232;50.914;13.858;2023-06-01T14:46:39;11.00;;;6.13;;
36189;SDS011;22232;50.914;13.858;2023-06-01T14:49:08;8.77;;;6.30;;
36189;SDS011;22232;50.914;13.858;2023-06-01T14:51:36;9.90;;;6.28;;
36189;SDS011;22232;50.914;13.858;2023-06-01T14:54:04;9.60;;;6.13;;
36189;SDS011;22232;50.914;13.858;2023-06-01T14:56:32;12.55;;;6.25;;
36189;SDS011;22232;50.914;13.858;2023-06-01T14:58:59;12.50;;;6.47;;
36189;SDS011;22232;50.914;13.858;2023-06-01T15:01:27;10.73;;;6.43;;
36189;SDS011;22232;50.914;13.858;2023-06-01T15:03:55;12.05;;;5.82;;
36189;SDS011;22232;50.914;13.858;2023-06-01T15:06:23;10.82;;;6.45;;
36189;SDS011;22232;50.914;13.858;2023-06-01T15:08:50;24.55;;;8.10;;
36189;SDS011;22232;50.914;13.858;2023-06-01T15:11:18;14.82;;;7.35;;
36189;SDS011;22232;50.914;13.858;2023-06-01T15:13:45;10.98;;;6.25;;
36189;SDS011;22232;50.914;13.858;2023-06-01T15:16:14;11.57;;;6.35;;
36189;SDS011;22232;50.914;13.858;2023-06-01T15:18:42;10.73;;;6.75;;
36189;SDS011;22232;50.914;13.858;2023-06-01T15:21:10;12.18;;;7.63;;
36189;SDS011;22232;50.914;13.858;2023-06-01T15:23:37;8.52;;;6.75;;
36189;SDS011;22232;50.914;13.858;2023-06-01T15:26:05;12.38;;;6.70;;
36189;SDS011;22232;50.914;13.858;2023-06-01T15:28:33;9.18;;;6.03;;
36189;SDS011;22232;50.914;13.858;2023-06-01T15:31:00;9.68;;;6.65;;
36189;SDS011;22232;50.914;13.858;2023-06-01T15:33:28;12.90;;;6.40;;
36189;SDS011;22232;50.914;13.858;2023-06-01T15:35:56;11.38;;;6.00;;
36189;SDS011;22232;50.914;13.858;2023-06-01T15:38:24;7.65;;;5.60;;
36189;SDS011;22232;50.914;13.858;2023-06-01T15:40:52;7.50;;;4.90;;
36189;SDS011;22232;50.914;13.858;2023-06-01T15:43:20;17.73;;;5.80;;
36189;SDS011;22232;50.914;13.858;2023-06-01T15:45:47;7.53;;;4.57;;
36189;SDS011;22232;50.914;13.858;2023-06-01T15:48:15;7.30;;;5.00;;
36189;SDS011;22232;50.914;13.858;2023-06-01T15:50:42;6.60;;;4.38;;